Time;durP1;ratioP1;P1;durP2;ratioP2;P2;SDS_P1;SDS_P2;PMS_P1;PMS_P2;Temp;Humidity;BMP_temperature;BMP_pressure;BME280_temperature;BME280_humidity;BME280_pressure;Samples;Min_cycle;Max_cycle;Signal;HPM_P1;HPM_P2
2022/06/18 00:01:34;;;;;;;2.83;2.00;;;;;;;;;;5042504;28;20202;-69
2022/06/18 00:04:04;;;;;;;2.17;1.95;;;;;;;;;;5042235;28;20197;-69
2022/06/18 00:06:32;;;;;;;5.75;1.80;;;;;;;;;;5041864;28;20226;-69
2022/06/18 00:08:59;;;;;;;2.00;1.90;;;;;;;;;;5042177;28;20236;-69
2022/06/18 00:14:11;;;;;;;2.00;1.80;;;;;;;;;;5042272;28;20228;-69
2022/06/18 00:16:38;;;;;;;2.13;1.85;;;;;;;;;;5041958;28;20501;-69
2022/06/18 00:19:04;;;;;;;2.30;2.10;;;;;;;;;;5042042;28;20198;-69
2022/06/18 00:21:30;;;;;;;4.22;1.55;;;;;;;;;;5042125;28;20387;-69
2022/06/18 00:23:56;;;;;;;1.70;1.70;;;;;;;;;;5042217;28;20481;-69
2022/06/18 00:26:23;;;;;;;2.00;1.88;;;;;;;;;;5041712;28;20205;-69
2022/06/18 00:28:50;;;;;;;1.60;1.48;;;;;;;;;;5042160;28;20198;-69
2022/06/18 00:31:17;;;;;;;1.40;1.40;;;;;;;;;;5041977;28;20201;-69
2022/06/18 00:33:43;;;;;;;1.73;1.45;;;;;;;;;;5042078;28;20197;-69
2022/06/18 00:36:13;;;;;;;1.52;1.45;;;;;;;;;;5041613;28;20197;-69
2022/06/18 00:38:40;;;;;;;3.40;1.50;;;;;;;;;;5042120;28;20197;-70
2022/06/18 00:41:07;;;;;;;2.03;1.63;;;;;;;;;;5041709;28;20205;-69
2022/06/18 00:43:36;;;;;;;1.70;1.60;;;;;;;;;;5041976;28;20209;-69
2022/06/18 00:46:06;;;;;;;2.28;2.10;;;;;;;;;;5041697;28;20205;-69
2022/06/18 00:48:35;;;;;;;2.00;1.70;;;;;;;;;;5041720;28;20232;-69
2022/06/18 00:51:04;;;;;;;1.90;1.80;;;;;;;;;;5041799;28;20387;-69
2022/06/18 00:53:35;;;;;;;2.30;1.90;;;;;;;;;;5043634;28;20197;-69
2022/06/18 00:56:03;;;;;;;2.20;1.83;;;;;;;;;;5045504;28;20204;-69
2022/06/18 00:58:31;;;;;;;3.63;2.40;;;;;;;;;;5045665;28;20451;-69
2022/06/18 01:00:59;;;;;;;2.15;1.95;;;;;;;;;;5045539;28;20206;-69
2022/06/18 01:03:28;;;;;;;2.28;2.08;;;;;;;;;;5045542;28;20374;-69
2022/06/18 01:05:55;;;;;;;2.05;1.95;;;;;;;;;;5045386;28;20272;-69
2022/06/18 01:08:22;;;;;;;1.88;1.77;;;;;;;;;;5045325;28;20213;-69
2022/06/18 01:10:50;;;;;;;2.90;1.80;;;;;;;;;;5045504;28;20527;-69
2022/06/18 01:13:18;;;;;;;2.10;1.60;;;;;;;;;;5045292;28;20209;-69
2022/06/18 01:15:45;;;;;;;1.77;1.67;;;;;;;;;;5045279;28;20204;-69
2022/06/18 01:18:12;;;;;;;1.60;1.60;;;;;;;;;;5045258;28;20201;-69
2022/06/18 01:20:43;;;;;;;1.90;1.80;;;;;;;;;;5045426;28;20525;-69
2022/06/18 01:23:12;;;;;;;1.98;1.98;;;;;;;;;;5045165;28;20204;-69
2022/06/18 01:25:40;;;;;;;2.33;1.83;;;;;;;;;;5045298;28;20447;-69
2022/06/18 01:28:09;;;;;;;2.47;2.28;;;;;;;;;;5044658;28;20224;-69
2022/06/18 01:30:36;;;;;;;2.60;2.40;;;;;;;;;;5044975;28;20209;-69
2022/06/18 01:33:06;;;;;;;2.67;2.20;;;;;;;;;;5045240;28;20498;-69
2022/06/18 01:35:32;;;;;;;2.35;2.25;;;;;;;;;;5045269;28;20204;-69
2022/06/18 01:37:59;;;;;;;2.40;2.10;;;;;;;;;;5044080;28;20519;-69
2022/06/18 01:40:29;;;;;;;3.85;2.20;;;;;;;;;;5044856;28;20225;-69
2022/06/18 01:42:59;;;;;;;1.85;1.70;;;;;;;;;;5045165;28;20497;-69
2022/06/18 01:45:26;;;;;;;1.80;1.65;;;;;;;;;;5044789;28;20390;-69
2022/06/18 01:47:55;;;;;;;2.00;1.90;;;;;;;;;;5044498;28;20215;-69
2022/06/18 01:50:22;;;;;;;3.97;1.83;;;;;;;;;;5044653;28;20197;-69
2022/06/18 01:52:51;;;;;;;2.65;1.80;;;;;;;;;;5044941;28;20441;-69
2022/06/18 01:55:19;;;;;;;1.92;1.83;;;;;;;;;;5044745;28;20204;-69
2022/06/18 01:57:46;;;;;;;2.20;2.10;;;;;;;;;;5044565;28;20385;-69
2022/06/18 02:00:17;;;;;;;2.03;2.00;;;;;;;;;;5044571;28;20515;-69
2022/06/18 02:02:44;;;;;;;5.88;2.22;;;;;;;;;;5044602;28;20198;-69
2022/06/18 02:05:11;;;;;;;2.58;2.08;;;;;;;;;;5043471;28;20214;-69
2022/06/18 02:07:38;;;;;;;2.95;2.00;;;;;;;;;;5044294;28;20222;-69
2022/06/18 02:10:06;;;;;;;3.72;1.83;;;;;;;;;;5044585;28;20198;-69
2022/06/18 02:12:34;;;;;;;2.17;2.08;;;;;;;;;;5044218;28;20198;-69
2022/06/18 02:15:02;;;;;;;1.88;1.77;;;;;;;;;;5044371;28;20201;-69
2022/06/18 02:17:31;;;;;;;4.45;2.00;;;;;;;;;;5043928;28;20208;-69
2022/06/18 02:20:00;;;;;;;1.90;1.80;;;;;;;;;;5044200;28;20202;-69
2022/06/18 02:22:29;;;;;;;1.80;1.80;;;;;;;;;;5044249;28;20270;-69
2022/06/18 02:24:55;;;;;;;1.60;1.50;;;;;;;;;;5044282;28;20281;-69
2022/06/18 02:27:21;;;;;;;4.95;1.95;;;;;;;;;;5043801;28;20217;-69
2022/06/18 02:29:48;;;;;;;1.70;1.65;;;;;;;;;;5043961;28;20197;-69
2022/06/18 02:32:19;;;;;;;3.92;1.90;;;;;;;;;;5043917;28;20204;-69
2022/06/18 02:34:46;;;;;;;3.80;2.08;;;;;;;;;;5044002;28;20198;-69
2022/06/18 02:37:15;;;;;;;3.10;2.08;;;;;;;;;;5043816;28;20205;-70
2022/06/18 02:39:52;;;;;;;1.90;1.80;;;;;;;;;;5043698;28;20205;-69
2022/06/18 02:42:19;;;;;;;1.83;1.70;;;;;;;;;;5043726;28;20202;-69
2022/06/18 02:44:46;;;;;;;2.58;2.08;;;;;;;;;;5043626;28;20459;-69
2022/06/18 02:47:13;;;;;;;2.13;1.90;;;;;;;;;;5043508;28;20423;-69
2022/06/18 02:49:41;;;;;;;2.55;2.08;;;;;;;;;;5043859;28;20528;-69
2022/06/18 02:52:08;;;;;;;2.00;1.92;;;;;;;;;;5043706;28;20498;-69
2022/06/18 02:54:35;;;;;;;1.85;1.80;;;;;;;;;;5043437;28;20534;-69
2022/06/18 02:57:05;;;;;;;1.70;1.70;;;;;;;;;;5043265;28;20204;-69
2022/06/18 02:59:31;;;;;;;2.72;1.92;;;;;;;;;;5043307;28;20194;-69
2022/06/18 03:01:58;;;;;;;2.70;1.80;;;;;;;;;;5043538;28;20214;-69
2022/06/18 03:04:24;;;;;;;1.60;1.45;;;;;;;;;;5043429;28;20407;-69
2022/06/18 03:06:51;;;;;;;4.85;1.67;;;;;;;;;;5043129;28;20218;-69
2022/06/18 03:09:18;;;;;;;1.80;1.70;;;;;;;;;;5043179;28;20665;-70
2022/06/18 03:14:28;;;;;;;2.60;1.60;;;;;;;;;;5043122;28;20572;-69
2022/06/18 03:16:55;;;;;;;2.22;2.03;;;;;;;;;;5042936;28;20204;-69
2022/06/18 03:19:29;;;;;;;2.70;1.80;;;;;;;;;;5043082;28;20208;-69
2022/06/18 03:21:57;;;;;;;1.70;1.60;;;;;;;;;;5043048;28;20394;-69
2022/06/18 03:24:25;;;;;;;3.28;1.80;;;;;;;;;;5042790;28;20515;-69
2022/06/18 03:26:52;;;;;;;1.90;1.80;;;;;;;;;;5043078;28;20201;-69
2022/06/18 03:29:18;;;;;;;2.78;1.85;;;;;;;;;;5042954;28;20384;-69
2022/06/18 03:31:45;;;;;;;2.92;1.85;;;;;;;;;;5042951;28;20208;-69
2022/06/18 03:34:11;;;;;;;1.98;1.70;;;;;;;;;;5042852;28;20204;-70
2022/06/18 03:36:37;;;;;;;2.10;2.00;;;;;;;;;;5042416;28;20197;-69
2022/06/18 03:39:04;;;;;;;2.88;2.00;;;;;;;;;;5042880;28;20371;-69
2022/06/18 03:41:31;;;;;;;4.88;2.10;;;;;;;;;;5042792;28;20410;-69
2022/06/18 03:43:58;;;;;;;4.35;2.08;;;;;;;;;;5042456;28;20264;-69
2022/06/18 03:46:24;;;;;;;2.13;2.03;;;;;;;;;;5042395;28;20413;-69
2022/06/18 03:48:52;;;;;;;2.00;2.00;;;;;;;;;;5042408;28;20225;-69
2022/06/18 03:51:19;;;;;;;2.25;2.15;;;;;;;;;;5042433;28;20276;-69
2022/06/18 03:53:45;;;;;;;4.72;2.17;;;;;;;;;;5042667;28;20198;-69
2022/06/18 03:56:12;;;;;;;3.65;2.13;;;;;;;;;;5042121;28;20269;-69
2022/06/18 03:58:40;;;;;;;2.75;2.40;;;;;;;;;;5042426;28;20516;-69
2022/06/18 04:01:07;;;;;;;2.58;2.30;;;;;;;;;;5042384;28;20204;-69
2022/06/18 04:03:33;;;;;;;3.00;2.20;;;;;;;;;;5042332;28;20505;-69
2022/06/18 04:06:00;;;;;;;2.25;2.03;;;;;;;;;;5041840;28;20247;-69
2022/06/18 04:08:26;;;;;;;2.13;2.00;;;;;;;;;;5042324;28;20533;-69
2022/06/18 04:10:52;;;;;;;2.00;1.92;;;;;;;;;;5042395;28;20202;-69
2022/06/18 04:13:19;;;;;;;2.90;2.33;;;;;;;;;;5041965;28;20204;-69
2022/06/18 04:15:47;;;;;;;2.97;2.08;;;;;;;;;;5042174;28;20210;-71
2022/06/18 04:18:14;;;;;;;4.35;2.25;;;;;;;;;;5041810;28;20194;-71
2022/06/18 04:20:41;;;;;;;2.75;2.65;;;;;;;;;;5042017;28;20451;-71
2022/06/18 04:23:09;;;;;;;3.00;1.92;;;;;;;;;;5042377;28;20469;-71
2022/06/18 04:25:35;;;;;;;4.13;2.33;;;;;;;;;;5042524;28;20225;-71
2022/06/18 04:28:02;;;;;;;3.88;2.92;;;;;;;;;;5044215;28;20221;-71
2022/06/18 04:30:30;;;;;;;4.38;3.22;;;;;;;;;;5048725;28;20400;-71
2022/06/18 04:32:58;;;;;;;5.68;3.97;;;;;;;;;;5048669;28;20197;-71
2022/06/18 04:35:25;;;;;;;2.80;2.60;;;;;;;;;;5048515;28;20201;-71
2022/06/18 04:37:51;;;;;;;4.55;2.72;;;;;;;;;;5048489;28;20197;-71
2022/06/18 04:40:18;;;;;;;3.78;3.10;;;;;;;;;;5048651;28;20271;-71
2022/06/18 04:42:45;;;;;;;3.25;2.50;;;;;;;;;;5048555;28;20232;-71
2022/06/18 04:45:12;;;;;;;2.75;2.55;;;;;;;;;;5048548;28;20227;-71
2022/06/18 04:47:40;;;;;;;4.50;2.35;;;;;;;;;;5048108;28;20204;-71
2022/06/18 04:50:09;;;;;;;5.70;2.20;;;;;;;;;;5048732;28;20221;-71
2022/06/18 04:52:36;;;;;;;2.38;2.15;;;;;;;;;;5048462;28;20202;-71
2022/06/18 04:55:02;;;;;;;2.80;2.50;;;;;;;;;;5048571;28;20277;-71
2022/06/18 04:57:28;;;;;;;2.40;2.30;;;;;;;;;;5048083;28;20197;-71
2022/06/18 04:59:54;;;;;;;3.80;2.45;;;;;;;;;;5048349;28;20194;-71
2022/06/18 05:02:22;;;;;;;2.75;2.38;;;;;;;;;;5048321;28;20205;-71
2022/06/18 05:04:48;;;;;;;3.60;2.50;;;;;;;;;;5048288;28;20213;-71
2022/06/18 05:07:16;;;;;;;2.65;2.55;;;;;;;;;;5048171;28;20202;-71
2022/06/18 05:09:42;;;;;;;5.82;3.03;;;;;;;;;;5048302;28;20221;-71
2022/06/18 05:12:09;;;;;;;4.28;2.53;;;;;;;;;;5048282;28;20201;-72
2022/06/18 05:14:35;;;;;;;2.65;2.30;;;;;;;;;;5048182;28;20197;-71
2022/06/18 05:17:03;;;;;;;2.50;2.40;;;;;;;;;;5047938;28;20198;-71
2022/06/18 05:19:31;;;;;;;2.55;2.35;;;;;;;;;;5048437;28;20198;-71
2022/06/18 05:21:57;;;;;;;6.07;2.45;;;;;;;;;;5048292;28;20296;-72
2022/06/18 05:24:25;;;;;;;3.63;2.30;;;;;;;;;;5048257;28;20204;-71
2022/06/18 05:26:52;;;;;;;2.42;2.28;;;;;;;;;;5047935;28;20198;-71
2022/06/18 05:29:19;;;;;;;2.35;2.25;;;;;;;;;;5047975;28;20221;-71
2022/06/18 05:31:45;;;;;;;2.47;2.38;;;;;;;;;;5048618;28;20198;-72
2022/06/18 05:34:11;;;;;;;6.18;2.45;;;;;;;;;;5048423;28;20416;-71
2022/06/18 05:36:38;;;;;;;2.53;2.33;;;;;;;;;;5048038;28;20198;-71
2022/06/18 05:39:05;;;;;;;2.40;2.30;;;;;;;;;;5046863;28;20195;-71
2022/06/18 05:41:32;;;;;;;3.15;2.80;;;;;;;;;;5044377;28;20201;-72
2022/06/18 05:43:59;;;;;;;2.42;2.30;;;;;;;;;;5044831;28;20197;-71
2022/06/18 05:46:25;;;;;;;3.45;2.30;;;;;;;;;;5044829;28;20209;-72
2022/06/18 05:48:53;;;;;;;3.47;2.63;;;;;;;;;;5044828;28;20222;-71
2022/06/18 05:51:19;;;;;;;2.70;2.50;;;;;;;;;;5044778;28;20300;-72
2022/06/18 05:53:45;;;;;;;2.55;2.40;;;;;;;;;;5045109;28;20198;-71
2022/06/18 05:56:12;;;;;;;3.17;2.30;;;;;;;;;;5044409;28;20505;-71
2022/06/18 05:58:39;;;;;;;2.72;2.42;;;;;;;;;;5044487;28;20197;-72
2022/06/18 06:01:06;;;;;;;2.90;2.55;;;;;;;;;;5044851;28;20206;-71
2022/06/18 06:03:32;;;;;;;2.60;2.40;;;;;;;;;;5044611;28;20501;-72
2022/06/18 06:05:59;;;;;;;2.40;2.30;;;;;;;;;;5044236;28;20226;-72
2022/06/18 06:08:25;;;;;;;3.45;2.22;;;;;;;;;;5044220;28;20225;-72
2022/06/18 06:13:35;;;;;;;2.78;2.58;;;;;;;;;;5044368;28;20228;-72
2022/06/18 06:16:03;;;;;;;3.65;2.92;;;;;;;;;;5044281;28;20197;-72
2022/06/18 06:18:30;;;;;;;7.47;6.70;;;;;;;;;;5044411;28;20198;-72
2022/06/18 06:20:57;;;;;;;7.88;4.85;;;;;;;;;;5044295;28;20198;-72
2022/06/18 06:23:24;;;;;;;5.95;3.20;;;;;;;;;;5043962;28;20198;-71
2022/06/18 06:25:50;;;;;;;2.75;2.55;;;;;;;;;;5044283;28;20198;-71
2022/06/18 06:28:18;;;;;;;2.70;2.17;;;;;;;;;;5043981;28;20540;-71
2022/06/18 06:30:44;;;;;;;3.33;2.53;;;;;;;;;;5044400;28;20210;-71
2022/06/18 06:33:19;;;;;;;2.67;2.45;;;;;;;;;;5044259;28;20236;-73
2022/06/18 06:35:46;;;;;;;4.97;2.45;;;;;;;;;;5043883;28;20236;-71
2022/06/18 06:38:12;;;;;;;2.03;1.92;;;;;;;;;;5043987;28;20204;-71
2022/06/18 06:40:39;;;;;;;4.90;2.38;;;;;;;;;;5043723;28;20194;-71
2022/06/18 06:43:07;;;;;;;2.33;2.13;;;;;;;;;;5043854;28;20190;-71
2022/06/18 06:45:34;;;;;;;2.50;2.40;;;;;;;;;;5043749;28;20198;-71
2022/06/18 06:48:00;;;;;;;2.53;2.33;;;;;;;;;;5043436;28;20198;-71
2022/06/18 06:50:29;;;;;;;2.65;2.47;;;;;;;;;;5043150;28;20233;-71
2022/06/18 06:52:56;;;;;;;2.55;2.20;;;;;;;;;;5043664;28;20205;-71
2022/06/18 06:58:07;;;;;;;3.50;3.20;;;;;;;;;;5043323;28;20466;-71
2022/06/18 07:00:35;;;;;;;4.47;2.38;;;;;;;;;;5043400;28;20280;-71
2022/06/18 07:03:01;;;;;;;2.17;2.08;;;;;;;;;;5043347;28;20202;-71
2022/06/18 07:05:29;;;;;;;2.67;2.47;;;;;;;;;;5043476;28;20225;-71
2022/06/18 07:07:55;;;;;;;2.05;1.95;;;;;;;;;;5043204;28;20375;-71
2022/06/18 07:10:22;;;;;;;3.72;2.58;;;;;;;;;;5043182;28;20225;-71
2022/06/18 07:12:48;;;;;;;2.85;2.38;;;;;;;;;;5043175;28;20519;-71
2022/06/18 07:15:15;;;;;;;5.68;2.42;;;;;;;;;;5043302;28;20198;-74
2022/06/18 07:17:42;;;;;;;2.90;2.20;;;;;;;;;;5042690;28;20198;-71
2022/06/18 07:20:10;;;;;;;6.18;2.22;;;;;;;;;;5043174;28;20197;-71
2022/06/18 07:22:38;;;;;;;2.33;2.22;;;;;;;;;;5043174;28;20203;-71
2022/06/18 07:25:04;;;;;;;3.03;2.65;;;;;;;;;;5042958;28;20212;-71
2022/06/18 07:27:32;;;;;;;4.53;2.20;;;;;;;;;;5042791;28;20210;-71
2022/06/18 07:29:59;;;;;;;2.75;2.42;;;;;;;;;;5042581;28;20416;-71
2022/06/18 07:32:25;;;;;;;6.00;2.20;;;;;;;;;;5043054;28;20201;-71
2022/06/18 07:34:53;;;;;;;2.53;2.35;;;;;;;;;;5042933;28;20612;-71
2022/06/18 07:37:19;;;;;;;3.13;2.17;;;;;;;;;;5041876;28;20449;-71
2022/06/18 07:39:47;;;;;;;2.70;2.53;;;;;;;;;;5042095;28;20212;-71
2022/06/18 07:42:14;;;;;;;4.97;2.47;;;;;;;;;;5042056;28;20205;-71
2022/06/18 07:44:40;;;;;;;3.67;2.30;;;;;;;;;;5042030;28;20198;-71
2022/06/18 07:47:07;;;;;;;3.67;2.22;;;;;;;;;;5041931;28;20450;-71
2022/06/18 07:49:33;;;;;;;2.40;2.20;;;;;;;;;;5041893;28;20227;-71
2022/06/18 07:51:59;;;;;;;1.98;1.88;;;;;;;;;;5042002;28;20209;-71
2022/06/18 07:54:25;;;;;;;2.00;1.90;;;;;;;;;;5042026;28;20203;-71
2022/06/18 07:56:53;;;;;;;2.53;2.40;;;;;;;;;;5041807;28;20202;-71
2022/06/18 07:59:19;;;;;;;5.35;2.60;;;;;;;;;;5041714;28;20424;-71
2022/06/18 08:01:46;;;;;;;2.90;2.15;;;;;;;;;;5041952;28;20350;-71
2022/06/18 08:04:12;;;;;;;3.08;2.30;;;;;;;;;;5041402;28;20212;-71
2022/06/18 08:06:38;;;;;;;3.72;2.25;;;;;;;;;;5041403;28;20221;-71
2022/06/18 08:09:05;;;;;;;2.17;2.08;;;;;;;;;;5041759;28;20233;-71
2022/06/18 08:11:31;;;;;;;2.47;2.05;;;;;;;;;;5041728;28;20197;-71
2022/06/18 08:13:59;;;;;;;2.58;2.00;;;;;;;;;;5041608;28;20197;-72
2022/06/18 08:16:25;;;;;;;2.80;2.42;;;;;;;;;;5041620;28;20500;-71
2022/06/18 08:18:51;;;;;;;2.30;2.10;;;;;;;;;;5041870;28;20244;-72
2022/06/18 08:21:19;;;;;;;3.78;2.50;;;;;;;;;;5041602;28;20531;-71
2022/06/18 08:23:45;;;;;;;4.00;2.67;;;;;;;;;;5041429;28;20207;-71
2022/06/18 08:26:12;;;;;;;2.88;2.22;;;;;;;;;;5041688;28;20203;-71
2022/06/18 08:28:39;;;;;;;4.18;2.33;;;;;;;;;;5041560;28;20197;-71
2022/06/18 08:31:07;;;;;;;2.65;2.40;;;;;;;;;;5041581;28;20536;-71
2022/06/18 08:33:34;;;;;;;2.80;2.50;;;;;;;;;;5041438;28;20205;-71
2022/06/18 08:36:01;;;;;;;2.72;2.50;;;;;;;;;;5041388;28;20272;-71
2022/06/18 08:38:28;;;;;;;4.90;3.75;;;;;;;;;;5041488;28;20204;-71
2022/06/18 08:41:05;;;;;;;5.47;2.97;;;;;;;;;;5041687;28;20193;-71
2022/06/18 08:43:42;;;;;;;3.35;2.55;;;;;;;;;;5041453;28;20196;-72
2022/06/18 08:46:12;;;;;;;4.30;3.10;;;;;;;;;;5041351;28;20204;-72
2022/06/18 08:48:49;;;;;;;3.22;2.00;;;;;;;;;;5041492;28;20204;-71
2022/06/18 08:51:21;;;;;;;2.30;2.20;;;;;;;;;;5041246;28;20220;-72
2022/06/18 08:53:57;;;;;;;6.50;2.30;;;;;;;;;;5041475;28;20197;-71
2022/06/18 08:56:26;;;;;;;2.40;2.17;;;;;;;;;;5041127;28;20197;-71
2022/06/18 08:58:56;;;;;;;4.72;2.40;;;;;;;;;;5041355;28;20198;-71
2022/06/18 09:01:26;;;;;;;1.85;1.75;;;;;;;;;;5041332;28;20193;-71
2022/06/18 09:04:00;;;;;;;2.67;2.38;;;;;;;;;;5041233;28;20197;-71
2022/06/18 09:06:30;;;;;;;3.95;2.50;;;;;;;;;;5041150;28;20296;-71
2022/06/18 09:08:59;;;;;;;2.45;2.10;;;;;;;;;;5041291;28;20504;-71
2022/06/18 09:11:31;;;;;;;5.32;4.38;;;;;;;;;;5041071;28;20218;-71
2022/06/18 09:14:01;;;;;;;3.80;2.58;;;;;;;;;;5041859;28;20300;-71
2022/06/18 09:16:32;;;;;;;3.10;2.42;;;;;;;;;;5045053;28;20197;-73
2022/06/18 09:19:00;;;;;;;3.50;3.03;;;;;;;;;;5045156;28;20273;-71
2022/06/18 09:21:29;;;;;;;8.00;6.13;;;;;;;;;;5044831;28;20223;-74
2022/06/18 09:23:58;;;;;;;4.57;1.60;;;;;;;;;;5044890;28;20204;-71
2022/06/18 09:26:27;;;;;;;2.03;1.90;;;;;;;;;;5044422;28;20198;-72
2022/06/18 09:28:56;;;;;;;1.90;1.77;;;;;;;;;;5044650;28;20273;-72
2022/06/18 09:31:25;;;;;;;2.00;1.90;;;;;;;;;;5044614;28;20431;-72
2022/06/18 09:33:56;;;;;;;6.32;1.80;;;;;;;;;;5044467;28;20197;-72
2022/06/18 09:36:24;;;;;;;2.03;1.50;;;;;;;;;;5044200;28;20207;-72
2022/06/18 09:38:53;;;;;;;2.05;1.55;;;;;;;;;;5044566;28;20490;-72
2022/06/18 09:41:21;;;;;;;2.28;1.42;;;;;;;;;;5044270;28;20198;-72
2022/06/18 09:43:53;;;;;;;1.10;1.00;;;;;;;;;;5044521;28;20197;-72
2022/06/18 09:46:20;;;;;;;1.40;1.30;;;;;;;;;;5044250;28;20208;-72
2022/06/18 09:48:47;;;;;;;1.50;1.10;;;;;;;;;;5044386;28;20235;-72
2022/06/18 09:51:18;;;;;;;1.85;1.33;;;;;;;;;;5044295;28;20228;-72
2022/06/18 09:53:45;;;;;;;5.32;1.40;;;;;;;;;;5044808;28;20197;-72
2022/06/18 09:56:13;;;;;;;2.55;1.58;;;;;;;;;;5044629;28;20197;-71
2022/06/18 09:58:42;;;;;;;2.70;1.20;;;;;;;;;;5044713;28;20222;-71
2022/06/18 10:01:10;;;;;;;2.35;1.35;;;;;;;;;;5044687;28;20200;-71
2022/06/18 10:09:10;;;;;;;1.33;1.27;;;;;;;;;;5044353;28;20239;-70
2022/06/18 10:11:36;;;;;;;1.50;1.40;;;;;;;;;;5044681;28;20217;-73
2022/06/18 10:14:05;;;;;;;1.52;1.10;;;;;;;;;;5044852;28;20381;-73
2022/06/18 10:16:35;;;;;;;2.13;1.20;;;;;;;;;;5044204;28;20197;-73
2022/06/18 10:19:04;;;;;;;1.15;1.10;;;;;;;;;;5044213;28;20213;-73
2022/06/18 10:21:38;;;;;;;2.05;0.90;;;;;;;;;;5044894;28;20194;-73
2022/06/18 10:24:06;;;;;;;1.92;1.15;;;;;;;;;;5044287;28;20201;-71
2022/06/18 10:26:34;;;;;;;0.88;0.88;;;;;;;;;;5043258;28;20388;-73
2022/06/18 10:29:03;;;;;;;0.90;0.90;;;;;;;;;;5044266;28;20201;-72
2022/06/18 10:31:34;;;;;;;1.20;1.20;;;;;;;;;;5043992;28;20217;-73
2022/06/18 10:34:05;;;;;;;1.65;0.95;;;;;;;;;;5044237;28;20547;-73
2022/06/18 10:36:36;;;;;;;1.20;1.10;;;;;;;;;;5043956;28;20483;-73
2022/06/18 10:39:17;;;;;;;1.90;1.10;;;;;;;;;;5043903;28;20212;-72
2022/06/18 10:41:48;;;;;;;1.08;0.93;;;;;;;;;;5042773;28;20382;-73
2022/06/18 10:44:23;;;;;;;6.78;1.40;;;;;;;;;;5043732;28;20201;-73
2022/06/18 10:46:58;;;;;;;2.88;1.30;;;;;;;;;;5043751;28;20197;-72
2022/06/18 10:49:25;;;;;;;1.65;1.40;;;;;;;;;;5043683;28;20203;-72
2022/06/18 10:51:53;;;;;;;2.50;1.17;;;;;;;;;;5043955;28;20224;-73
2022/06/18 10:54:27;;;;;;;1.42;1.33;;;;;;;;;;5043765;28;20197;-73
2022/06/18 10:56:56;;;;;;;4.47;1.30;;;;;;;;;;5043455;28;20196;-73
2022/06/18 10:59:30;;;;;;;1.30;1.23;;;;;;;;;;5043620;28;20280;-73
2022/06/18 11:01:56;;;;;;;3.75;1.30;;;;;;;;;;5043567;28;20255;-73
2022/06/18 11:04:24;;;;;;;2.15;1.10;;;;;;;;;;5043370;28;20213;-73
2022/06/18 11:06:57;;;;;;;1.00;1.00;;;;;;;;;;5043017;28;20221;-73
2022/06/18 11:09:28;;;;;;;1.30;1.05;;;;;;;;;;5043514;28;20221;-73
2022/06/18 11:12:05;;;;;;;1.05;1.05;;;;;;;;;;5043363;28;20221;-73
2022/06/18 11:14:33;;;;;;;1.15;1.15;;;;;;;;;;5043359;28;20201;-73
2022/06/18 11:17:00;;;;;;;3.40;1.17;;;;;;;;;;5042977;28;20505;-73
2022/06/18 11:19:28;;;;;;;1.50;1.17;;;;;;;;;;5043403;28;20212;-73
2022/06/18 11:21:54;;;;;;;1.00;1.00;;;;;;;;;;5043552;28;20292;-73
2022/06/18 11:24:24;;;;;;;3.35;1.13;;;;;;;;;;5042927;28;20197;-72
2022/06/18 11:26:55;;;;;;;1.50;1.40;;;;;;;;;;5042687;28;20203;-72
2022/06/18 11:29:27;;;;;;;2.80;1.40;;;;;;;;;;5043155;28;20497;-73
2022/06/18 11:31:55;;;;;;;4.22;1.25;;;;;;;;;;5042784;28;20227;-72
2022/06/18 11:34:25;;;;;;;1.67;1.25;;;;;;;;;;5042983;28;20204;-71
2022/06/18 11:36:52;;;;;;;1.73;1.58;;;;;;;;;;5042468;28;20186;-72
2022/06/18 11:39:25;;;;;;;2.55;1.40;;;;;;;;;;5042229;28;20560;-72
2022/06/18 11:41:54;;;;;;;3.58;1.55;;;;;;;;;;5042782;28;20192;-72
2022/06/18 11:44:23;;;;;;;2.97;1.60;;;;;;;;;;5042610;28;20225;-72
2022/06/18 11:46:53;;;;;;;4.57;1.85;;;;;;;;;;5042545;28;20201;-72
2022/06/18 11:49:23;;;;;;;3.60;1.30;;;;;;;;;;5043065;28;20373;-72
2022/06/18 11:51:54;;;;;;;5.13;1.80;;;;;;;;;;5042542;28;20418;-72
2022/06/18 11:54:23;;;;;;;2.72;1.58;;;;;;;;;;5042676;28;20204;-72
2022/06/18 11:56:56;;;;;;;2.80;1.40;;;;;;;;;;5042235;28;20394;-72
2022/06/18 11:59:27;;;;;;;7.00;1.50;;;;;;;;;;5042764;28;20210;-72
2022/06/18 12:01:56;;;;;;;3.47;1.48;;;;;;;;;;5042527;28;20200;-72
2022/06/18 12:04:25;;;;;;;3.78;1.55;;;;;;;;;;5042385;28;20224;-72
2022/06/18 12:06:53;;;;;;;3.35;1.50;;;;;;;;;;5041875;28;20223;-72
2022/06/18 12:09:19;;;;;;;2.38;1.60;;;;;;;;;;5041696;28;20197;-72
2022/06/18 12:11:50;;;;;;;9.90;2.33;;;;;;;;;;5041816;28;20221;-72
2022/06/18 12:14:23;;;;;;;7.80;1.90;;;;;;;;;;5041825;28;20457;-73
2022/06/18 12:16:52;;;;;;;4.28;1.95;;;;;;;;;;5041592;28;20387;-72
2022/06/18 12:19:23;;;;;;;6.85;1.83;;;;;;;;;;5041827;28;20197;-73
2022/06/18 12:21:52;;;;;;;3.72;1.80;;;;;;;;;;5041525;28;20193;-72
2022/06/18 12:24:22;;;;;;;6.00;2.17;;;;;;;;;;5041631;28;20197;-73
2022/06/18 12:26:52;;;;;;;5.03;2.15;;;;;;;;;;5041533;28;20197;-73
2022/06/18 12:29:37;;;;;;;5.75;1.40;;;;;;;;;;5041825;28;20489;-73
2022/06/18 12:32:10;;;;;;;8.18;2.00;;;;;;;;;;5041644;28;20217;-73
2022/06/18 12:34:39;;;;;;;2.88;1.73;;;;;;;;;;5041833;28;20197;-73
2022/06/18 12:37:10;;;;;;;6.88;1.90;;;;;;;;;;5041521;28;20428;-72
2022/06/18 12:39:41;;;;;;;8.70;1.80;;;;;;;;;;5041535;28;20205;-72
2022/06/18 12:42:11;;;;;;;3.88;1.70;;;;;;;;;;5041628;28;20200;-73
2022/06/18 12:44:41;;;;;;;3.97;1.70;;;;;;;;;;5041333;28;20235;-72
2022/06/18 12:47:14;;;;;;;2.78;1.85;;;;;;;;;;5041413;28;20200;-73
2022/06/18 12:49:45;;;;;;;6.10;1.98;;;;;;;;;;5043711;28;20513;-73
2022/06/18 12:52:15;;;;;;;5.22;1.95;;;;;;;;;;5045545;28;20535;-73
2022/06/18 12:54:57;;;;;;;5.88;2.25;;;;;;;;;;5045581;28;20200;-73
2022/06/18 12:57:26;;;;;;;7.68;2.00;;;;;;;;;;5045411;28;20501;-73
2022/06/18 13:00:02;;;;;;;3.35;1.85;;;;;;;;;;5045515;28;20198;-73
2022/06/18 13:02:35;;;;;;;7.10;2.15;;;;;;;;;;5045271;28;20193;-73
2022/06/18 13:05:10;;;;;;;5.07;1.90;;;;;;;;;;5045037;28;20462;-73
2022/06/18 13:07:41;;;;;;;4.43;2.10;;;;;;;;;;5044872;28;20220;-73
2022/06/18 13:10:09;;;;;;;3.67;2.05;;;;;;;;;;5045032;28;20268;-73
2022/06/18 13:12:43;;;;;;;7.90;2.10;;;;;;;;;;5044919;28;20236;-73
2022/06/18 13:15:18;;;;;;;8.48;2.42;;;;;;;;;;5045109;28;20202;-73
2022/06/18 13:17:46;;;;;;;8.05;2.20;;;;;;;;;;5045189;28;20205;-72
2022/06/18 13:20:14;;;;;;;4.18;2.20;;;;;;;;;;5045264;28;20197;-73
2022/06/18 13:22:41;;;;;;;8.70;2.63;;;;;;;;;;5045106;28;20193;-73
2022/06/18 13:28:12;;;;;;;5.65;2.05;;;;;;;;;;5044642;28;20235;-72
2022/06/18 13:30:47;;;;;;;5.53;2.33;;;;;;;;;;5044478;28;20197;-73
2022/06/18 13:33:18;;;;;;;8.05;2.47;;;;;;;;;;5044952;28;20310;-73
2022/06/18 13:35:47;;;;;;;9.18;2.22;;;;;;;;;;5045216;28;20202;-73
2022/06/18 13:38:18;;;;;;;6.00;2.30;;;;;;;;;;5044600;28;20272;-73
2022/06/18 13:40:47;;;;;;;10.38;2.72;;;;;;;;;;5045236;28;20509;-73
2022/06/18 13:43:17;;;;;;;6.60;2.30;;;;;;;;;;5044989;28;20204;-73
2022/06/18 13:45:49;;;;;;;11.32;2.65;;;;;;;;;;5045332;28;20201;-73
2022/06/18 13:48:21;;;;;;;5.32;2.45;;;;;;;;;;5044810;28;20197;-73
2022/06/18 13:50:49;;;;;;;9.65;2.67;;;;;;;;;;5044941;28;20288;-73
2022/06/18 13:53:24;;;;;;;8.88;2.17;;;;;;;;;;5044806;28;20198;-73
2022/06/18 13:55:51;;;;;;;12.02;2.63;;;;;;;;;;5044958;28;20197;-73
2022/06/18 13:58:19;;;;;;;6.95;2.15;;;;;;;;;;5044634;28;20441;-73
2022/06/18 14:00:47;;;;;;;8.63;2.17;;;;;;;;;;5043983;28;20239;-73
2022/06/18 14:03:17;;;;;;;10.32;2.45;;;;;;;;;;5044788;28;20236;-73
2022/06/18 14:05:45;;;;;;;7.95;2.33;;;;;;;;;;5044700;28;20232;-73
2022/06/18 14:08:23;;;;;;;21.95;2.88;;;;;;;;;;5044390;28;20224;-73
2022/06/18 14:10:49;;;;;;;11.23;2.80;;;;;;;;;;5044665;28;20235;-73
2022/06/18 14:13:21;;;;;;;9.68;2.53;;;;;;;;;;5044412;28;20197;-72
2022/06/18 14:15:54;;;;;;;14.90;2.88;;;;;;;;;;5044615;28;20221;-73
2022/06/18 14:18:21;;;;;;;19.42;3.15;;;;;;;;;;5044242;28;20208;-73
2022/06/18 14:20:54;;;;;;;12.82;2.88;;;;;;;;;;5044373;28;20212;-73
2022/06/18 14:23:25;;;;;;;12.30;2.50;;;;;;;;;;5044260;28;20204;-73
2022/06/18 14:25:58;;;;;;;10.88;2.88;;;;;;;;;;5044507;28;20417;-73
2022/06/18 14:28:26;;;;;;;11.52;2.67;;;;;;;;;;5044311;28;20268;-73
2022/06/18 14:30:59;;;;;;;15.68;2.78;;;;;;;;;;5044196;28;20208;-73
2022/06/18 14:33:29;;;;;;;16.30;2.55;;;;;;;;;;5044405;28;20392;-73
2022/06/18 14:35:57;;;;;;;14.18;2.85;;;;;;;;;;5044248;28;20197;-73
2022/06/18 14:38:24;;;;;;;12.63;2.75;;;;;;;;;;5044235;28;20395;-73
2022/06/18 14:43:44;;;;;;;17.30;3.03;;;;;;;;;;5018388;28;20256;-73
2022/06/18 14:46:17;;;;;;;12.68;2.80;;;;;;;;;;5043980;28;20267;-73
2022/06/18 14:48:52;;;;;;;14.80;3.25;;;;;;;;;;5043824;28;20197;-72
2022/06/18 14:51:26;;;;;;;15.25;3.00;;;;;;;;;;5043867;28;20247;-73
2022/06/18 14:54:08;;;;;;;27.77;3.70;;;;;;;;;;5043731;28;20197;-73
2022/06/18 14:56:45;;;;;;;22.75;3.80;;;;;;;;;;5043418;28;20201;-73
2022/06/18 14:59:31;;;;;;;13.73;3.53;;;;;;;;;;5043849;28;20231;-73
2022/06/18 15:02:03;;;;;;;20.38;3.60;;;;;;;;;;5043659;28;20421;-73
2022/06/18 15:04:32;;;;;;;24.73;4.05;;;;;;;;;;5043418;28;20205;-73
2022/06/18 15:07:03;;;;;;;25.02;4.03;;;;;;;;;;5043448;28;20197;-73
2022/06/18 15:09:30;;;;;;;21.90;3.50;;;;;;;;;;5043407;28;20197;-73
2022/06/18 15:11:58;;;;;;;25.23;3.70;;;;;;;;;;5043128;28;20232;-73
2022/06/18 15:14:25;;;;;;;22.65;4.10;;;;;;;;;;5043375;28;20197;-73